sensor_id;sensor_type;location;lat;lon;timestamp;pressure;altitude;pressure_sealevel;temperature;humidity
54042;BME280;41156;51.508;5.406;2023-03-16T00:00:28;101670.91;;;4.66;96.31
54042;BME280;41156;51.508;5.406;2023-03-16T00:03:31;101671.75;;;4.66;96.46
54042;BME280;41156;51.508;5.406;2023-03-16T00:06:32;101668.09;;;4.67;96.21
54042;BME280;41156;51.508;5.406;2023-03-16T00:09:32;101664.56;;;4.67;96.69
54042;BME280;41156;51.508;5.406;2023-03-16T00:12:33;101661.03;;;4.66;97.02
54042;BME280;41156;51.508;5.406;2023-03-16T00:15:33;101660.22;;;4.66;97.16
54042;BME280;41156;51.508;5.406;2023-03-16T00:18:34;101659.38;;;4.65;97.43
54042;BME280;41156;51.508;5.406;2023-03-16T00:21:38;101655.84;;;4.64;97.47
54042;BME280;41156;51.508;5.406;2023-03-16T00:24:38;101648.66;;;4.65;97.63
54042;BME280;41156;51.508;5.406;2023-03-16T00:27:38;101649.50;;;4.66;97.29
54042;BME280;41156;51.508;5.406;2023-03-16T00:30:38;101644.97;;;4.66;97.31
54042;BME280;41156;51.508;5.406;2023-03-16T00:33:40;101644.97;;;4.66;97.48
54042;BME280;41156;51.508;5.406;2023-03-16T00:36:41;101637.97;;;4.65;97.67
54042;BME280;41156;51.508;5.406;2023-03-16T00:39:42;101635.13;;;4.67;97.70
54042;BME280;41156;51.508;5.406;2023-03-16T00:42:43;101639.63;;;4.66;97.42
54042;BME280;41156;51.508;5.406;2023-03-16T00:45:43;101633.28;;;4.67;97.72
54042;BME280;41156;51.508;5.406;2023-03-16T00:48:45;101630.59;;;4.67;97.66
54042;BME280;41156;51.508;5.406;2023-03-16T00:51:46;101620.88;;;4.66;97.95
54042;BME280;41156;51.508;5.406;2023-03-16T00:54:47;101623.41;;;4.68;97.87
54042;BME280;41156;51.508;5.406;2023-03-16T00:57:47;101622.56;;;4.67;97.98
54042;BME280;41156;51.508;5.406;2023-03-16T01:00:47;101622.41;;;4.69;97.79
54042;BME280;41156;51.508;5.406;2023-03-16T01:03:48;101609.34;;;4.66;98.07
54042;BME280;41156;51.508;5.406;2023-03-16T01:06:48;101610.00;;;4.68;98.05
54042;BME280;41156;51.508;5.406;2023-03-16T01:09:49;101594.09;;;4.66;98.08
54042;BME280;41156;51.508;5.406;2023-03-16T01:12:49;101594.09;;;4.66;98.53
54042;BME280;41156;51.508;5.406;2023-03-16T01:15:50;101589.78;;;4.65;98.63
54042;BME280;41156;51.508;5.406;2023-03-16T01:18:51;101591.44;;;4.66;98.35
54042;BME280;41156;51.508;5.406;2023-03-16T01:21:54;101583.41;;;4.66;98.60
54042;BME280;41156;51.508;5.406;2023-03-16T01:24:54;101568.03;;;4.68;98.57
54042;BME280;41156;51.508;5.406;2023-03-16T01:27:55;101562.69;;;4.68;98.63
54042;BME280;41156;51.508;5.406;2023-03-16T01:31:00;101575.38;;;4.66;99.20
54042;BME280;41156;51.508;5.406;2023-03-16T01:34:01;101562.69;;;4.68;98.86
54042;BME280;41156;51.508;5.406;2023-03-16T01:37:03;101551.81;;;4.70;98.71
54042;BME280;41156;51.508;5.406;2023-03-16T01:40:03;101554.31;;;4.71;98.87
54042;BME280;41156;51.508;5.406;2023-03-16T01:43:05;101557.69;;;4.73;99.05
54042;BME280;41156;51.508;5.406;2023-03-16T01:46:16;101556.00;;;4.72;99.41
54042;BME280;41156;51.508;5.406;2023-03-16T01:49:33;101558.38;;;4.75;99.31
54042;BME280;41156;51.508;5.406;2023-03-16T01:52:36;101554.00;;;4.74;99.39
54042;BME280;41156;51.508;5.406;2023-03-16T01:55:37;101549.66;;;4.73;99.15
54042;BME280;41156;51.508;5.406;2023-03-16T01:58:38;101547.97;;;4.72;99.34
54042;BME280;41156;51.508;5.406;2023-03-16T02:01:39;101555.00;;;4.73;99.20
54042;BME280;41156;51.508;5.406;2023-03-16T02:05:02;101552.19;;;4.75;99.61
54042;BME280;41156;51.508;5.406;2023-03-16T02:08:05;101536.94;;;4.75;99.36
54042;BME280;41156;51.508;5.406;2023-03-16T02:11:08;101545.66;;;4.77;99.86
54042;BME280;41156;51.508;5.406;2023-03-16T02:14:10;101543.66;;;4.79;99.41
54042;BME280;41156;51.508;5.406;2023-03-16T02:17:12;101533.63;;;4.81;99.24
54042;BME280;41156;51.508;5.406;2023-03-16T02:23:34;101536.00;;;4.85;100.00
54042;BME280;41156;51.508;5.406;2023-03-16T02:26:52;101528.13;;;4.83;100.00
54042;BME280;41156;51.508;5.406;2023-03-16T02:30:12;101525.75;;;4.80;100.00
54042;BME280;41156;51.508;5.406;2023-03-16T02:33:14;101528.59;;;4.78;100.00
54042;BME280;41156;51.508;5.406;2023-03-16T02:36:17;101524.91;;;4.79;100.00
54042;BME280;41156;51.508;5.406;2023-03-16T02:39:18;101519.19;;;4.74;100.00
54042;BME280;41156;51.508;5.406;2023-03-16T02:42:20;101523.56;;;4.75;100.00
54042;BME280;41156;51.508;5.406;2023-03-16T02:45:25;101522.03;;;4.73;100.00
54042;BME280;41156;51.508;5.406;2023-03-16T02:48:39;101520.38;;;4.72;100.00
54042;BME280;41156;51.508;5.406;2023-03-16T02:51:44;101524.03;;;4.71;100.00
54042;BME280;41156;51.508;5.406;2023-03-16T02:54:45;101513.47;;;4.69;100.00
54042;BME280;41156;51.508;5.406;2023-03-16T02:57:45;101505.44;;;4.69;100.00
54042;BME280;41156;51.508;5.406;2023-03-16T03:00:45;101508.28;;;4.68;100.00
54042;BME280;41156;51.508;5.406;2023-03-16T03:03:46;101508.13;;;4.69;100.00
54042;BME280;41156;51.508;5.406;2023-03-16T03:06:46;101500.41;;;4.66;100.00
54042;BME280;41156;51.508;5.406;2023-03-16T03:09:46;101498.59;;;4.67;100.00
54042;BME280;41156;51.508;5.406;2023-03-16T03:12:46;101496.91;;;4.66;100.00
54042;BME280;41156;51.508;5.406;2023-03-16T03:15:48;101500.41;;;4.66;100.00
54042;BME280;41156;51.508;5.406;2023-03-16T03:18:49;101501.28;;;4.67;100.00
54042;BME280;41156;51.508;5.406;2023-03-16T03:21:51;101495.91;;;4.67;100.00
54042;BME280;41156;51.508;5.406;2023-03-16T03:24:55;101502.09;;;4.67;100.00
54042;BME280;41156;51.508;5.406;2023-03-16T03:27:56;101497.41;;;4.69;100.00
54042;BME280;41156;51.508;5.406;2023-03-16T03:30:57;101498.28;;;4.70;100.00
54042;BME280;41156;51.508;5.406;2023-03-16T03:33:57;101500.09;;;4.69;100.00
54042;BME280;41156;51.508;5.406;2023-03-16T03:36:58;101488.72;;;4.67;100.00
54042;BME280;41156;51.508;5.406;2023-03-16T03:39:58;101491.53;;;4.66;100.00
54042;BME280;41156;51.508;5.406;2023-03-16T03:42:59;101486.34;;;4.64;100.00
54042;BME280;41156;51.508;5.406;2023-03-16T03:46:01;101482.84;;;4.63;100.00
54042;BME280;41156;51.508;5.406;2023-03-16T03:49:02;101484.69;;;4.63;100.00
54042;BME280;41156;51.508;5.406;2023-03-16T03:52:04;101491.69;;;4.64;100.00
54042;BME280;41156;51.508;5.406;2023-03-16T03:55:05;101481.81;;;4.64;100.00
54042;BME280;41156;51.508;5.406;2023-03-16T03:58:05;101484.34;;;4.66;100.00
54042;BME280;41156;51.508;5.406;2023-03-16T04:01:06;101481.50;;;4.68;100.00
54042;BME280;41156;51.508;5.406;2023-03-16T04:04:06;101474.34;;;4.68;100.00
54042;BME280;41156;51.508;5.406;2023-03-16T04:07:07;101468.81;;;4.70;100.00
54042;BME280;41156;51.508;5.406;2023-03-16T04:10:08;101459.78;;;4.71;100.00
54042;BME280;41156;51.508;5.406;2023-03-16T04:13:08;101459.09;;;4.69;100.00
54042;BME280;41156;51.508;5.406;2023-03-16T04:16:09;101457.09;;;4.71;100.00
54042;BME280;41156;51.508;5.406;2023-03-16T04:19:10;101460.78;;;4.70;100.00
54042;BME280;41156;51.508;5.406;2023-03-16T04:22:10;101460.59;;;4.71;100.00
54042;BME280;41156;51.508;5.406;2023-03-16T04:25:14;101463.28;;;4.71;100.00
54042;BME280;41156;51.508;5.406;2023-03-16T04:28:15;101468.63;;;4.71;100.00
54042;BME280;41156;51.508;5.406;2023-03-16T04:31:17;101461.47;;;4.72;100.00
54042;BME280;41156;51.508;5.406;2023-03-16T04:34:17;101456.94;;;4.72;100.00
54042;BME280;41156;51.508;5.406;2023-03-16T04:37:17;101458.63;;;4.73;100.00
54042;BME280;41156;51.508;5.406;2023-03-16T04:40:18;101456.78;;;4.74;100.00
54042;BME280;41156;51.508;5.406;2023-03-16T04:43:18;101459.13;;;4.77;100.00
54042;BME280;41156;51.508;5.406;2023-03-16T04:46:19;101452.75;;;4.78;100.00
54042;BME280;41156;51.508;5.406;2023-03-16T04:49:19;101455.13;;;4.81;100.00
54042;BME280;41156;51.508;5.406;2023-03-16T04:52:19;101454.28;;;4.80;100.00
54042;BME280;41156;51.508;5.406;2023-03-16T04:55:20;101445.13;;;4.83;100.00
54042;BME280;41156;51.508;5.406;2023-03-16T04:58:21;101452.28;;;4.82;100.00
54042;BME280;41156;51.508;5.406;2023-03-16T05:01:22;101447.63;;;4.85;100.00
54042;BME280;41156;51.508;5.406;2023-03-16T05:04:22;101442.28;;;4.85;100.00
54042;BME280;41156;51.508;5.406;2023-03-16T05:07:23;101444.09;;;4.84;100.00
54042;BME280;41156;51.508;5.406;2023-03-16T05:10:23;101439.75;;;4.83;100.00
54042;BME280;41156;51.508;5.406;2023-03-16T05:13:24;101441.56;;;4.82;100.00
54042;BME280;41156;51.508;5.406;2023-03-16T05:16:24;101440.75;;;4.82;100.00
54042;BME280;41156;51.508;5.406;2023-03-16T05:19:24;101429.88;;;4.84;100.00
54042;BME280;41156;51.508;5.406;2023-03-16T05:22:25;101434.41;;;4.83;100.00
54042;BME280;41156;51.508;5.406;2023-03-16T05:25:25;101430.03;;;4.82;100.00
54042;BME280;41156;51.508;5.406;2023-03-16T05:28:25;101426.38;;;4.83;100.00
54042;BME280;41156;51.508;5.406;2023-03-16T05:31:26;101424.50;;;4.84;100.00
54042;BME280;41156;51.508;5.406;2023-03-16T05:34:26;101420.84;;;4.85;100.00
54042;BME280;41156;51.508;5.406;2023-03-16T05:37:27;101419.84;;;4.86;100.00
54042;BME280;41156;51.508;5.406;2023-03-16T05:40:27;101406.94;;;4.89;100.00
54042;BME280;41156;51.508;5.406;2023-03-16T05:43:28;101418.16;;;4.93;100.00
54042;BME280;41156;51.508;5.406;2023-03-16T05:46:29;101402.78;;;4.95;100.00
54042;BME280;41156;51.508;5.406;2023-03-16T05:49:29;101405.47;;;4.95;100.00
54042;BME280;41156;51.508;5.406;2023-03-16T05:52:30;101409.81;;;4.96;100.00
54042;BME280;41156;51.508;5.406;2023-03-16T05:55:31;101403.47;;;4.97;100.00
54042;BME280;41156;51.508;5.406;2023-03-16T05:58:31;101399.78;;;4.98;100.00
54042;BME280;41156;51.508;5.406;2023-03-16T06:01:32;101401.44;;;4.99;100.00
54042;BME280;41156;51.508;5.406;2023-03-16T06:04:33;101401.44;;;4.99;100.00
54042;BME280;41156;51.508;5.406;2023-03-16T06:07:34;101407.31;;;5.03;100.00
54042;BME280;41156;51.508;5.406;2023-03-16T06:10:35;101401.94;;;5.03;100.00
54042;BME280;41156;51.508;5.406;2023-03-16T06:13:35;101406.16;;;5.05;100.00
54042;BME280;41156;51.508;5.406;2023-03-16T06:16:36;101408.50;;;5.08;100.00
54042;BME280;41156;51.508;5.406;2023-03-16T06:19:36;101401.97;;;5.11;100.00
54042;BME280;41156;51.508;5.406;2023-03-16T06:22:40;101398.31;;;5.12;100.00
54042;BME280;41156;51.508;5.406;2023-03-16T06:25:41;101404.16;;;5.15;100.00
54042;BME280;41156;51.508;5.406;2023-03-16T06:28:42;101399.63;;;5.16;100.00
54042;BME280;41156;51.508;5.406;2023-03-16T06:31:42;101403.50;;;5.22;100.00
54042;BME280;41156;51.508;5.406;2023-03-16T06:34:42;101397.97;;;5.23;100.00
54042;BME280;41156;51.508;5.406;2023-03-16T06:37:42;101387.44;;;5.22;100.00
54042;BME280;41156;51.508;5.406;2023-03-16T06:40:43;101391.75;;;5.23;100.00
54042;BME280;41156;51.508;5.406;2023-03-16T06:43:43;101386.72;;;5.19;100.00
54042;BME280;41156;51.508;5.406;2023-03-16T06:46:43;101380.38;;;5.21;100.00
54042;BME280;41156;51.508;5.406;2023-03-16T06:49:44;101379.38;;;5.22;100.00
54042;BME280;41156;51.508;5.406;2023-03-16T06:52:45;101391.28;;;5.27;100.00
54042;BME280;41156;51.508;5.406;2023-03-16T06:55:46;101387.28;;;5.31;100.00
54042;BME280;41156;51.508;5.406;2023-03-16T06:58:46;101379.91;;;5.33;100.00
54042;BME280;41156;51.508;5.406;2023-03-16T07:01:47;101383.06;;;5.37;100.00
54042;BME280;41156;51.508;5.406;2023-03-16T07:04:49;101392.44;;;5.41;100.00
54042;BME280;41156;51.508;5.406;2023-03-16T07:07:49;101387.59;;;5.45;100.00
54042;BME280;41156;51.508;5.406;2023-03-16T07:10:50;101383.75;;;5.47;100.00
54042;BME280;41156;51.508;5.406;2023-03-16T07:13:51;101381.56;;;5.51;100.00
54042;BME280;41156;51.508;5.406;2023-03-16T07:16:51;101373.69;;;5.57;100.00
54042;BME280;41156;51.508;5.406;2023-03-16T07:19:51;101364.31;;;5.62;100.00
54042;BME280;41156;51.508;5.406;2023-03-16T07:22:52;101365.28;;;5.69;100.00
54042;BME280;41156;51.508;5.406;2023-03-16T07:25:52;101357.56;;;5.74;100.00
54042;BME280;41156;51.508;5.406;2023-03-16T07:28:52;101356.06;;;5.80;100.00
54042;BME280;41156;51.508;5.406;2023-03-16T07:31:53;101356.38;;;5.85;100.00
54042;BME280;41156;51.508;5.406;2023-03-16T07:34:54;101368.94;;;5.92;100.00
54042;BME280;41156;51.508;5.406;2023-03-16T07:37:54;101363.22;;;5.96;100.00
54042;BME280;41156;51.508;5.406;2023-03-16T07:40:54;101371.63;;;6.01;100.00
54042;BME280;41156;51.508;5.406;2023-03-16T07:43:55;101372.47;;;6.01;100.00
54042;BME280;41156;51.508;5.406;2023-03-16T07:46:57;101365.09;;;6.03;100.00
54042;BME280;41156;51.508;5.406;2023-03-16T07:49:58;101361.91;;;6.08;100.00
54042;BME280;41156;51.508;5.406;2023-03-16T07:52:58;101367.59;;;6.13;100.00
54042;BME280;41156;51.508;5.406;2023-03-16T07:55:59;101364.56;;;6.16;100.00
54042;BME280;41156;51.508;5.406;2023-03-16T07:58:59;101366.88;;;6.19;99.98
54042;BME280;41156;51.508;5.406;2023-03-16T08:02:00;101370.72;;;6.25;100.00
54042;BME280;41156;51.508;5.406;2023-03-16T08:05:01;101367.31;;;6.31;100.00
54042;BME280;41156;51.508;5.406;2023-03-16T08:08:01;101371.19;;;6.37;100.00
54042;BME280;41156;51.508;5.406;2023-03-16T08:11:01;101371.16;;;6.45;100.00
54042;BME280;41156;51.508;5.406;2023-03-16T08:14:02;101371.09;;;6.53;98.92
54042;BME280;41156;51.508;5.406;2023-03-16T08:17:05;101371.25;;;6.60;98.12
54042;BME280;41156;51.508;5.406;2023-03-16T08:20:07;101376.75;;;6.66;99.04
54042;BME280;41156;51.508;5.406;2023-03-16T08:23:09;101365.78;;;6.76;96.34
54042;BME280;41156;51.508;5.406;2023-03-16T08:26:12;101376.78;;;6.90;97.76
54042;BME280;41156;51.508;5.406;2023-03-16T08:29:13;101373.03;;;6.99;95.97
54042;BME280;41156;51.508;5.406;2023-03-16T08:32:13;101372.50;;;7.03;95.65
54042;BME280;41156;51.508;5.406;2023-03-16T08:35:14;101371.78;;;7.10;95.82
54042;BME280;41156;51.508;5.406;2023-03-16T08:38:15;101376.41;;;7.16;96.29
54042;BME280;41156;51.508;5.406;2023-03-16T08:41:16;101376.53;;;7.22;95.87
54042;BME280;41156;51.508;5.406;2023-03-16T08:44:16;101370.63;;;7.27;96.00
54042;BME280;41156;51.508;5.406;2023-03-16T08:47:16;101362.22;;;7.30;95.42
54042;BME280;41156;51.508;5.406;2023-03-16T08:50:17;101361.31;;;7.38;95.03
54042;BME280;41156;51.508;5.406;2023-03-16T08:53:18;101364.13;;;7.45;94.03
54042;BME280;41156;51.508;5.406;2023-03-16T08:56:20;101361.25;;;7.46;92.65
54042;BME280;41156;51.508;5.406;2023-03-16T08:59:20;101356.34;;;7.50;91.46
54042;BME280;41156;51.508;5.406;2023-03-16T09:02:20;101351.72;;;7.58;93.02
54042;BME280;41156;51.508;5.406;2023-03-16T09:05:21;101349.94;;;7.66;90.49
54042;BME280;41156;51.508;5.406;2023-03-16T09:08:22;101344.94;;;7.77;89.98
54042;BME280;41156;51.508;5.406;2023-03-16T09:11:24;101345.81;;;7.93;92.61
54042;BME280;41156;51.508;5.406;2023-03-16T09:14:27;101337.75;;;8.08;92.51
54042;BME280;41156;51.508;5.406;2023-03-16T09:17:28;101347.84;;;8.21;92.36
54042;BME280;41156;51.508;5.406;2023-03-16T09:20:28;101343.28;;;8.36;87.82
54042;BME280;41156;51.508;5.406;2023-03-16T09:23:29;101338.75;;;8.51;87.60
54042;BME280;41156;51.508;5.406;2023-03-16T09:26:30;101349.31;;;8.68;87.44
54042;BME280;41156;51.508;5.406;2023-03-16T09:29:30;101347.13;;;8.78;84.44
54042;BME280;41156;51.508;5.406;2023-03-16T09:32:33;101336.03;;;8.88;85.83
54042;BME280;41156;51.508;5.406;2023-03-16T09:35:33;101332.00;;;8.99;81.66
54042;BME280;41156;51.508;5.406;2023-03-16T09:38:33;101333.16;;;9.11;87.47
54042;BME280;41156;51.508;5.406;2023-03-16T09:41:55;101331.09;;;9.13;83.29
54042;BME280;41156;51.508;5.406;2023-03-16T09:45:15;101336.50;;;9.13;81.50
54042;BME280;41156;51.508;5.406;2023-03-16T09:48:18;101332.63;;;9.22;82.80
54042;BME280;41156;51.508;5.406;2023-03-16T09:51:34;101329.13;;;9.50;78.93
54042;BME280;41156;51.508;5.406;2023-03-16T09:54:48;101321.72;;;9.94;78.75
54042;BME280;41156;51.508;5.406;2023-03-16T09:57:51;101329.72;;;10.15;78.37
54042;BME280;41156;51.508;5.406;2023-03-16T10:01:14;101320.03;;;10.28;77.73
54042;BME280;41156;51.508;5.406;2023-03-16T10:04:29;101312.19;;;10.33;76.16
54042;BME280;41156;51.508;5.406;2023-03-16T10:14:30;101303.34;;;10.59;77.90
54042;BME280;41156;51.508;5.406;2023-03-16T10:17:37;101297.34;;;10.70;71.93
54042;BME280;41156;51.508;5.406;2023-03-16T10:20:40;101292.38;;;10.94;71.97
54042;BME280;41156;51.508;5.406;2023-03-16T10:23:43;101290.94;;;10.98;69.38
54042;BME280;41156;51.508;5.406;2023-03-16T10:26:49;101302.59;;;11.05;71.79
54042;BME280;41156;51.508;5.406;2023-03-16T10:29:53;101293.44;;;11.20;72.50
54042;BME280;41156;51.508;5.406;2023-03-16T10:32:56;101298.44;;;11.36;72.29
54042;BME280;41156;51.508;5.406;2023-03-16T10:39:35;101292.63;;;11.39;69.82
54042;BME280;41156;51.508;5.406;2023-03-16T10:42:36;101289.06;;;11.32;73.80
54042;BME280;41156;51.508;5.406;2023-03-16T10:45:36;101278.44;;;11.44;71.83
54042;BME280;41156;51.508;5.406;2023-03-16T10:48:37;101278.84;;;11.61;72.89
54042;BME280;41156;51.508;5.406;2023-03-16T10:51:38;101275.88;;;11.82;67.50
54042;BME280;41156;51.508;5.406;2023-03-16T10:54:39;101280.41;;;12.02;71.78
54042;BME280;41156;51.508;5.406;2023-03-16T10:57:42;101272.00;;;12.24;69.15
54042;BME280;41156;51.508;5.406;2023-03-16T11:00:44;101263.41;;;12.33;69.00
54042;BME280;41156;51.508;5.406;2023-03-16T11:03:50;101272.13;;;12.42;65.63
54042;BME280;41156;51.508;5.406;2023-03-16T11:06:54;101271.13;;;12.36;68.96
54042;BME280;41156;51.508;5.406;2023-03-16T11:09:55;101260.66;;;12.40;65.63
54042;BME280;41156;51.508;5.406;2023-03-16T11:13:17;101251.25;;;12.49;63.78
54042;BME280;41156;51.508;5.406;2023-03-16T11:16:36;101247.13;;;12.72;63.14
54042;BME280;41156;51.508;5.406;2023-03-16T11:22:44;101236.13;;;12.92;65.88
54042;BME280;41156;51.508;5.406;2023-03-16T11:25:49;101234.75;;;13.08;61.16
54042;BME280;41156;51.508;5.406;2023-03-16T11:28:59;101231.03;;;13.02;63.00
54042;BME280;41156;51.508;5.406;2023-03-16T11:32:19;101233.56;;;12.97;63.00
54042;BME280;41156;51.508;5.406;2023-03-16T11:38:57;101214.69;;;13.09;61.70
54042;BME280;41156;51.508;5.406;2023-03-16T12:05:08;101179.81;;;13.38;59.50
54042;BME280;41156;51.508;5.406;2023-03-16T12:12:48;101169.69;;;13.45;60.14
54042;BME280;41156;51.508;5.406;2023-03-16T12:15:42;101174.31;;;13.44;58.50
54042;BME280;41156;51.508;5.406;2023-03-16T12:22:01;101170.69;;;13.69;57.82
54042;BME280;41156;51.508;5.406;2023-03-16T12:25:15;101165.78;;;13.78;60.80
54042;BME280;41156;51.508;5.406;2023-03-16T12:28:27;101167.88;;;13.94;58.04
54042;BME280;41156;51.508;5.406;2023-03-16T12:32:08;101160.66;;;14.00;56.91
54042;BME280;41156;51.508;5.406;2023-03-16T12:35:23;101153.34;;;14.00;56.33
54042;BME280;41156;51.508;5.406;2023-03-16T12:45:34;101117.81;;;14.14;58.09
54042;BME280;41156;51.508;5.406;2023-03-16T12:48:43;101106.63;;;14.22;59.02
54042;BME280;41156;51.508;5.406;2023-03-16T12:51:45;101092.59;;;14.37;57.04
54042;BME280;41156;51.508;5.406;2023-03-16T12:55:06;101092.34;;;14.38;57.36
54042;BME280;41156;51.508;5.406;2023-03-16T12:58:07;101107.72;;;14.33;56.82
54042;BME280;41156;51.508;5.406;2023-03-16T13:01:10;101089.63;;;14.27;56.30
54042;BME280;41156;51.508;5.406;2023-03-16T13:04:14;101086.56;;;14.35;54.99
54042;BME280;41156;51.508;5.406;2023-03-16T13:07:21;101087.78;;;14.51;56.18
54042;BME280;41156;51.508;5.406;2023-03-16T13:10:22;101084.09;;;14.57;52.75
54042;BME280;41156;51.508;5.406;2023-03-16T13:13:25;101069.84;;;14.61;56.19
54042;BME280;41156;51.508;5.406;2023-03-16T13:16:31;101064.25;;;14.56;53.73
54042;BME280;41156;51.508;5.406;2023-03-16T13:19:32;101066.38;;;14.54;55.21
54042;BME280;41156;51.508;5.406;2023-03-16T13:22:48;101063.00;;;14.59;52.38
54042;BME280;41156;51.508;5.406;2023-03-16T13:29:29;101062.88;;;14.66;52.65
54042;BME280;41156;51.508;5.406;2023-03-16T13:32:32;101050.44;;;14.70;51.21
54042;BME280;41156;51.508;5.406;2023-03-16T13:35:32;101053.63;;;14.78;55.52
54042;BME280;41156;51.508;5.406;2023-03-16T13:38:34;101050.31;;;14.88;54.40
54042;BME280;41156;51.508;5.406;2023-03-16T13:41:35;101033.97;;;14.88;52.97
54042;BME280;41156;51.508;5.406;2023-03-16T13:44:39;101038.22;;;14.96;53.00
54042;BME280;41156;51.508;5.406;2023-03-16T13:47:43;101036.09;;;14.98;50.83
54042;BME280;41156;51.508;5.406;2023-03-16T13:50:53;101024.72;;;15.01;51.25
54042;BME280;41156;51.508;5.406;2023-03-16T13:53:54;101031.34;;;15.05;53.45
54042;BME280;41156;51.508;5.406;2023-03-16T13:56:57;101010.53;;;14.99;54.88
54042;BME280;41156;51.508;5.406;2023-03-16T14:03:17;101006.41;;;14.96;50.71
54042;BME280;41156;51.508;5.406;2023-03-16T14:06:27;101007.22;;;14.97;52.48
54042;BME280;41156;51.508;5.406;2023-03-16T14:09:34;101012.78;;;15.02;51.52
54042;BME280;41156;51.508;5.406;2023-03-16T14:12:34;100997.88;;;15.05;53.84
54042;BME280;41156;51.508;5.406;2023-03-16T14:15:37;100995.72;;;15.07;51.97
54042;BME280;41156;51.508;5.406;2023-03-16T14:18:46;100999.88;;;15.09;51.96
54042;BME280;41156;51.508;5.406;2023-03-16T14:21:47;100988.88;;;15.04;53.53
54042;BME280;41156;51.508;5.406;2023-03-16T14:24:58;100982.63;;;14.92;53.24
54042;BME280;41156;51.508;5.406;2023-03-16T14:28:04;100966.00;;;14.76;51.25
54042;BME280;41156;51.508;5.406;2023-03-16T14:31:11;100968.72;;;14.76;50.03
54042;BME280;41156;51.508;5.406;2023-03-16T14:37:35;100970.09;;;14.91;53.09
54042;BME280;41156;51.508;5.406;2023-03-16T14:40:36;100966.66;;;14.84;53.66
54042;BME280;41156;51.508;5.406;2023-03-16T14:43:39;100956.88;;;14.83;51.52
54042;BME280;41156;51.508;5.406;2023-03-16T14:46:44;100946.47;;;14.79;53.36
54042;BME280;41156;51.508;5.406;2023-03-16T14:49:44;100954.28;;;14.76;53.42
54042;BME280;41156;51.508;5.406;2023-03-16T14:52:46;100942.97;;;14.67;51.66
54042;BME280;41156;51.508;5.406;2023-03-16T14:55:47;100949.34;;;14.61;51.53
54042;BME280;41156;51.508;5.406;2023-03-16T14:58:47;100942.47;;;14.58;52.82
54042;BME280;41156;51.508;5.406;2023-03-16T15:01:49;100941.88;;;14.56;50.46
54042;BME280;41156;51.508;5.406;2023-03-16T15:04:54;100938.47;;;14.61;53.12
54042;BME280;41156;51.508;5.406;2023-03-16T15:07:55;100945.53;;;14.62;50.95
54042;BME280;41156;51.508;5.406;2023-03-16T15:10:58;100933.03;;;14.61;51.89
54042;BME280;41156;51.508;5.406;2023-03-16T15:13:59;100930.56;;;14.59;51.81
54042;BME280;41156;51.508;5.406;2023-03-16T15:17:13;100933.47;;;14.58;52.16
54042;BME280;41156;51.508;5.406;2023-03-16T15:20:20;100931.00;;;14.56;50.52
54042;BME280;41156;51.508;5.406;2023-03-16T15:23:22;100927.69;;;14.54;52.71
54042;BME280;41156;51.508;5.406;2023-03-16T15:26:24;100920.25;;;14.50;51.03
54042;BME280;41156;51.508;5.406;2023-03-16T15:29:26;100910.22;;;14.38;52.47
54042;BME280;41156;51.508;5.406;2023-03-16T15:32:26;100903.28;;;14.31;50.31
54042;BME280;41156;51.508;5.406;2023-03-16T15:35:27;100896.28;;;14.23;50.94
54042;BME280;41156;51.508;5.406;2023-03-16T15:38:30;100905.38;;;14.17;48.15
54042;BME280;41156;51.508;5.406;2023-03-16T15:41:31;100891.09;;;14.10;51.04
54042;BME280;41156;51.508;5.406;2023-03-16T15:44:31;100895.13;;;14.07;52.21
54042;BME280;41156;51.508;5.406;2023-03-16T15:47:32;100899.38;;;14.03;52.07
54042;BME280;41156;51.508;5.406;2023-03-16T15:50:32;100898.19;;;13.99;52.72
54042;BME280;41156;51.508;5.406;2023-03-16T15:53:38;100902.22;;;13.96;50.92
54042;BME280;41156;51.508;5.406;2023-03-16T15:56:42;100894.53;;;13.93;50.96
54042;BME280;41156;51.508;5.406;2023-03-16T15:59:45;100887.44;;;13.92;51.85
54042;BME280;41156;51.508;5.406;2023-03-16T16:02:46;100885.44;;;13.87;53.19
54042;BME280;41156;51.508;5.406;2023-03-16T16:05:47;100878.59;;;13.85;52.86
54042;BME280;41156;51.508;5.406;2023-03-16T16:08:48;100878.94;;;13.77;51.61
54042;BME280;41156;51.508;5.406;2023-03-16T16:11:48;100881.53;;;13.72;53.70
54042;BME280;41156;51.508;5.406;2023-03-16T16:14:49;100871.00;;;13.63;52.81
54042;BME280;41156;51.508;5.406;2023-03-16T16:17:51;100869.50;;;13.56;52.72
54042;BME280;41156;51.508;5.406;2023-03-16T16:20:52;100865.81;;;13.50;52.64
54042;BME280;41156;51.508;5.406;2023-03-16T16:23:53;100868.41;;;13.45;52.37
54042;BME280;41156;51.508;5.406;2023-03-16T16:26:53;100873.69;;;13.40;53.25
54042;BME280;41156;51.508;5.406;2023-03-16T16:29:54;100864.97;;;13.38;53.74
54042;BME280;41156;51.508;5.406;2023-03-16T16:32:54;100861.41;;;13.37;51.25
54042;BME280;41156;51.508;5.406;2023-03-16T16:35:58;100866.59;;;13.39;53.15
54042;BME280;41156;51.508;5.406;2023-03-16T16:38:59;100858.47;;;13.39;53.29
54042;BME280;41156;51.508;5.406;2023-03-16T16:41:59;100853.75;;;13.34;53.30
54042;BME280;41156;51.508;5.406;2023-03-16T16:45:00;100860.44;;;13.31;53.12
54042;BME280;41156;51.508;5.406;2023-03-16T16:48:00;100860.31;;;13.26;53.04
54042;BME280;41156;51.508;5.406;2023-03-16T16:51:02;100854.75;;;13.21;52.60
54042;BME280;41156;51.508;5.406;2023-03-16T16:54:13;100855.66;;;13.15;50.82
54042;BME280;41156;51.508;5.406;2023-03-16T16:57:17;100850.78;;;13.05;51.10
54042;BME280;41156;51.508;5.406;2023-03-16T17:00:24;100853.84;;;12.97;53.93
54042;BME280;41156;51.508;5.406;2023-03-16T17:03:28;100859.84;;;12.87;52.28
54042;BME280;41156;51.508;5.406;2023-03-16T17:06:29;100863.47;;;12.81;53.22